sensor_id;sensor_type;location;lat;lon;timestamp;pressure;altitude;pressure_sealevel;temperature;humidity
21594;BME280;10959;51.328;7.322;2022-12-19T00:02:18;99226.84;;;2.13;76.38
21594;BME280;10959;51.328;7.322;2022-12-19T00:04:45;99221.44;;;2.25;76.06
21594;BME280;10959;51.328;7.322;2022-12-19T00:07:11;99227.69;;;2.19;76.38
21594;BME280;10959;51.328;7.322;2022-12-19T00:09:39;99220.66;;;2.15;76.04
21594;BME280;10959;51.328;7.322;2022-12-19T00:12:05;99218.91;;;2.11;77.19
21594;BME280;10959;51.328;7.322;2022-12-19T00:14:35;99217.06;;;2.19;76.99
21594;BME280;10959;51.328;7.322;2022-12-19T00:17:02;99205.47;;;2.28;76.85
21594;BME280;10959;51.328;7.322;2022-12-19T00:19:28;99209.06;;;2.24;76.43
21594;BME280;10959;51.328;7.322;2022-12-19T00:21:55;99211.66;;;2.32;76.80
21594;BME280;10959;51.328;7.322;2022-12-19T00:24:21;99206.44;;;2.19;76.86
21594;BME280;10959;51.328;7.322;2022-12-19T00:26:49;99212.50;;;2.34;76.92
21594;BME280;10959;51.328;7.322;2022-12-19T00:29:15;99209.81;;;2.37;76.61
21594;BME280;10959;51.328;7.322;2022-12-19T00:31:42;99206.13;;;2.53;75.90
21594;BME280;10959;51.328;7.322;2022-12-19T00:34:08;99200.78;;;2.53;76.68
21594;BME280;10959;51.328;7.322;2022-12-19T00:36:35;99200.84;;;2.50;76.76
21594;BME280;10959;51.328;7.322;2022-12-19T00:39:02;99193.75;;;2.49;77.04
21594;BME280;10959;51.328;7.322;2022-12-19T00:41:30;99193.72;;;2.52;76.77
21594;BME280;10959;51.328;7.322;2022-12-19T00:44:00;99192.78;;;2.56;76.87
21594;BME280;10959;51.328;7.322;2022-12-19T00:46:28;99190.16;;;2.53;77.19
21594;BME280;10959;51.328;7.322;2022-12-19T00:48:55;99190.00;;;2.66;77.08
21594;BME280;10959;51.328;7.322;2022-12-19T00:51:23;99187.41;;;2.61;77.05
21594;BME280;10959;51.328;7.322;2022-12-19T00:53:51;99175.75;;;2.73;77.01
21594;BME280;10959;51.328;7.322;2022-12-19T00:56:20;99181.06;;;2.73;77.44
21594;BME280;10959;51.328;7.322;2022-12-19T00:58:47;99165.88;;;2.83;76.79
21594;BME280;10959;51.328;7.322;2022-12-19T01:01:18;99177.38;;;2.86;76.88
21594;BME280;10959;51.328;7.322;2022-12-19T01:03:45;99167.59;;;2.88;76.98
21594;BME280;10959;51.328;7.322;2022-12-19T01:06:12;99171.91;;;2.99;76.71
21594;BME280;10959;51.328;7.322;2022-12-19T01:08:38;99165.66;;;3.00;77.00
21594;BME280;10959;51.328;7.322;2022-12-19T01:11:05;99169.16;;;3.05;76.78
21594;BME280;10959;51.328;7.322;2022-12-19T01:13:33;99164.69;;;3.07;76.99
21594;BME280;10959;51.328;7.322;2022-12-19T01:16:01;99155.88;;;3.03;77.03
21594;BME280;10959;51.328;7.322;2022-12-19T01:18:29;99161.28;;;2.99;77.25
21594;BME280;10959;51.328;7.322;2022-12-19T01:20:58;99151.34;;;3.10;77.11
21594;BME280;10959;51.328;7.322;2022-12-19T01:23:25;99148.66;;;3.13;77.61
21594;BME280;10959;51.328;7.322;2022-12-19T01:25:52;99159.19;;;3.19;77.10
21594;BME280;10959;51.328;7.322;2022-12-19T01:28:19;99154.72;;;3.21;77.05
21594;BME280;10959;51.328;7.322;2022-12-19T01:30:46;99154.75;;;3.20;77.46
21594;BME280;10959;51.328;7.322;2022-12-19T01:33:14;99154.75;;;3.20;77.48
21594;BME280;10959;51.328;7.322;2022-12-19T01:35:44;99167.28;;;3.13;77.60
21594;BME280;10959;51.328;7.322;2022-12-19T01:38:12;99163.66;;;3.19;77.61
21594;BME280;10959;51.328;7.322;2022-12-19T01:40:38;99157.38;;;3.21;77.85
21594;BME280;10959;51.328;7.322;2022-12-19T01:43:08;99159.19;;;3.19;77.89
21594;BME280;10959;51.328;7.322;2022-12-19T01:45:37;99161.88;;;3.19;77.86
21594;BME280;10959;51.328;7.322;2022-12-19T01:48:14;99158.53;;;3.03;78.06
21594;BME280;10959;51.328;7.322;2022-12-19T01:50:53;99156.06;;;2.89;78.67
21594;BME280;10959;51.328;7.322;2022-12-19T01:53:21;99143.50;;;3.01;80.05
21594;BME280;10959;51.328;7.322;2022-12-19T01:55:49;99139.84;;;3.08;79.54
21594;BME280;10959;51.328;7.322;2022-12-19T01:58:16;99120.53;;;2.93;80.20
21594;BME280;10959;51.328;7.322;2022-12-19T02:00:43;99119.69;;;2.90;80.86
21594;BME280;10959;51.328;7.322;2022-12-19T02:03:13;99100.97;;;2.98;80.72
21594;BME280;10959;51.328;7.322;2022-12-19T02:05:41;99093.88;;;2.97;80.95
21594;BME280;10959;51.328;7.322;2022-12-19T02:08:10;99081.38;;;3.05;80.80
21594;BME280;10959;51.328;7.322;2022-12-19T02:10:36;99082.25;;;3.04;81.34
21594;BME280;10959;51.328;7.322;2022-12-19T02:13:03;99089.41;;;3.00;81.01
21594;BME280;10959;51.328;7.322;2022-12-19T02:15:36;99102.66;;;3.05;80.91
21594;BME280;10959;51.328;7.322;2022-12-19T02:18:11;99098.31;;;2.98;81.26
21594;BME280;10959;51.328;7.322;2022-12-19T02:21:03;99074.50;;;2.88;81.58
21594;BME280;10959;51.328;7.322;2022-12-19T02:23:58;99065.63;;;2.89;81.86
21594;BME280;10959;51.328;7.322;2022-12-19T02:26:45;99061.97;;;2.97;81.88
21594;BME280;10959;51.328;7.322;2022-12-19T02:29:34;99060.13;;;3.02;82.08
21594;BME280;10959;51.328;7.322;2022-12-19T02:32:15;99052.00;;;3.11;81.98
21594;BME280;10959;51.328;7.322;2022-12-19T02:34:49;99044.81;;;3.18;81.78
21594;BME280;10959;51.328;7.322;2022-12-19T02:37:21;99040.28;;;3.24;81.89
21594;BME280;10959;51.328;7.322;2022-12-19T02:39:54;99031.22;;;3.35;81.76
21594;BME280;10959;51.328;7.322;2022-12-19T02:42:25;99017.66;;;3.49;81.30
21594;BME280;10959;51.328;7.322;2022-12-19T02:44:53;99007.06;;;3.45;81.83
21594;BME280;10959;51.328;7.322;2022-12-19T02:47:21;98997.19;;;3.52;82.18
21594;BME280;10959;51.328;7.322;2022-12-19T02:49:48;99004.28;;;3.53;82.11
21594;BME280;10959;51.328;7.322;2022-12-19T02:52:42;98988.66;;;3.35;82.81
21594;BME280;10959;51.328;7.322;2022-12-19T02:55:11;98985.03;;;3.39;83.34
21594;BME280;10959;51.328;7.322;2022-12-19T02:58:00;98998.41;;;3.34;83.85
21594;BME280;10959;51.328;7.322;2022-12-19T03:00:35;98990.13;;;3.51;83.08
21594;BME280;10959;51.328;7.322;2022-12-19T03:03:10;98989.91;;;3.63;82.99
21594;BME280;10959;51.328;7.322;2022-12-19T03:05:44;98997.03;;;3.61;83.00
21594;BME280;10959;51.328;7.322;2022-12-19T03:08:17;98988.13;;;3.62;82.87
21594;BME280;10959;51.328;7.322;2022-12-19T03:10:52;98993.25;;;3.75;82.93
21594;BME280;10959;51.328;7.322;2022-12-19T03:13:22;98988.06;;;3.66;83.48
21594;BME280;10959;51.328;7.322;2022-12-19T03:15:51;98985.94;;;3.86;82.64
21594;BME280;10959;51.328;7.322;2022-12-19T03:18:19;98984.22;;;3.82;82.34
21594;BME280;10959;51.328;7.322;2022-12-19T03:20:49;98992.13;;;3.87;82.06
21594;BME280;10959;51.328;7.322;2022-12-19T03:23:17;98981.22;;;3.99;81.69
21594;BME280;10959;51.328;7.322;2022-12-19T03:25:51;98976.09;;;3.88;81.77
21594;BME280;10959;51.328;7.322;2022-12-19T03:28:22;98960.84;;;3.96;81.65
21594;BME280;10959;51.328;7.322;2022-12-19T03:30:51;98965.13;;;4.05;81.70
21594;BME280;10959;51.328;7.322;2022-12-19T03:33:21;98969.66;;;4.02;81.64
21594;BME280;10959;51.328;7.322;2022-12-19T03:35:51;98971.56;;;3.93;81.62
21594;BME280;10959;51.328;7.322;2022-12-19T03:38:19;98966.19;;;3.96;81.65
21594;BME280;10959;51.328;7.322;2022-12-19T03:40:47;98962.53;;;4.01;81.79
21594;BME280;10959;51.328;7.322;2022-12-19T03:43:16;98964.56;;;3.89;81.94
21594;BME280;10959;51.328;7.322;2022-12-19T03:45:46;98961.56;;;4.05;81.54
21594;BME280;10959;51.328;7.322;2022-12-19T03:48:19;98964.25;;;4.05;81.29
21594;BME280;10959;51.328;7.322;2022-12-19T03:50:54;98962.53;;;4.01;80.95
21594;BME280;10959;51.328;7.322;2022-12-19T03:53:35;98962.53;;;4.01;80.91
21594;BME280;10959;51.328;7.322;2022-12-19T03:56:09;98965.97;;;4.06;80.95
21594;BME280;10959;51.328;7.322;2022-12-19T03:58:41;98958.91;;;4.05;81.26
21594;BME280;10959;51.328;7.322;2022-12-19T04:01:09;98957.81;;;4.15;81.10
21594;BME280;10959;51.328;7.322;2022-12-19T04:03:36;98949.75;;;4.18;81.32
21594;BME280;10959;51.328;7.322;2022-12-19T04:06:04;98956.84;;;4.19;81.08
21594;BME280;10959;51.328;7.322;2022-12-19T04:08:32;98959.34;;;4.25;81.98
21594;BME280;10959;51.328;7.322;2022-12-19T04:11:04;98948.13;;;4.11;82.07
21594;BME280;10959;51.328;7.322;2022-12-19T04:13:34;98942.78;;;4.11;82.21
21594;BME280;10959;51.328;7.322;2022-12-19T04:16:09;98929.28;;;4.19;82.01
21594;BME280;10959;51.328;7.322;2022-12-19T04:18:39;98939.06;;;4.18;82.26
21594;BME280;10959;51.328;7.322;2022-12-19T04:21:12;98933.75;;;4.18;81.73
21594;BME280;10959;51.328;7.322;2022-12-19T04:23:44;98935.50;;;4.19;81.80
21594;BME280;10959;51.328;7.322;2022-12-19T04:26:13;98931.97;;;4.17;81.94
21594;BME280;10959;51.328;7.322;2022-12-19T04:28:45;98926.63;;;4.20;82.21
21594;BME280;10959;51.328;7.322;2022-12-19T04:31:13;98926.63;;;4.20;82.87
21594;BME280;10959;51.328;7.322;2022-12-19T04:33:40;98931.81;;;4.26;82.59
21594;BME280;10959;51.328;7.322;2022-12-19T04:36:09;98929.22;;;4.23;83.01
21594;BME280;10959;51.328;7.322;2022-12-19T04:38:36;98923.78;;;4.28;83.20
21594;BME280;10959;51.328;7.322;2022-12-19T04:41:02;98922.81;;;4.30;83.33
21594;BME280;10959;51.328;7.322;2022-12-19T04:43:29;98933.84;;;4.13;83.75
21594;BME280;10959;51.328;7.322;2022-12-19T04:45:55;98933.75;;;4.18;84.17
21594;BME280;10959;51.328;7.322;2022-12-19T04:48:21;98927.56;;;4.18;84.28
21594;BME280;10959;51.328;7.322;2022-12-19T04:50:48;98921.28;;;4.20;84.37
21594;BME280;10959;51.328;7.322;2022-12-19T04:53:15;98913.19;;;4.25;84.23
21594;BME280;10959;51.328;7.322;2022-12-19T04:55:42;98912.50;;;4.15;84.92
21594;BME280;10959;51.328;7.322;2022-12-19T04:58:09;98924.72;;;4.25;84.88
21594;BME280;10959;51.328;7.322;2022-12-19T05:00:35;98930.03;;;4.25;85.02
21594;BME280;10959;51.328;7.322;2022-12-19T05:03:02;98910.41;;;4.29;85.12
21594;BME280;10959;51.328;7.322;2022-12-19T05:05:28;98926.53;;;4.23;85.27
21594;BME280;10959;51.328;7.322;2022-12-19T05:07:55;98916.72;;;4.25;85.30
21594;BME280;10959;51.328;7.322;2022-12-19T05:10:23;98919.25;;;4.30;85.85
21594;BME280;10959;51.328;7.322;2022-12-19T05:12:49;98918.31;;;4.32;85.66
21594;BME280;10959;51.328;7.322;2022-12-19T05:15:16;98919.94;;;4.40;85.41
21594;BME280;10959;51.328;7.322;2022-12-19T05:17:42;98903.22;;;4.31;85.99
21594;BME280;10959;51.328;7.322;2022-12-19T05:20:09;98922.94;;;4.24;86.18
21594;BME280;10959;51.328;7.322;2022-12-19T05:22:36;98905.22;;;4.23;86.51
21594;BME280;10959;51.328;7.322;2022-12-19T05:25:03;98919.19;;;4.35;86.31
21594;BME280;10959;51.328;7.322;2022-12-19T05:27:31;98912.81;;;4.42;86.01
21594;BME280;10959;51.328;7.322;2022-12-19T05:29:58;98923.44;;;4.43;85.78
21594;BME280;10959;51.328;7.322;2022-12-19T05:32:28;98915.47;;;4.42;85.69
21594;BME280;10959;51.328;7.322;2022-12-19T05:34:55;98904.66;;;4.48;86.05
21594;BME280;10959;51.328;7.322;2022-12-19T05:37:21;98922.34;;;4.52;86.43
21594;BME280;10959;51.328;7.322;2022-12-19T05:39:48;98913.34;;;4.56;85.95
21594;BME280;10959;51.328;7.322;2022-12-19T05:42:14;98918.53;;;4.62;85.46
21594;BME280;10959;51.328;7.322;2022-12-19T05:44:42;98920.56;;;4.51;85.69
21594;BME280;10959;51.328;7.322;2022-12-19T05:47:08;98901.00;;;4.52;86.36
21594;BME280;10959;51.328;7.322;2022-12-19T05:49:35;98908.13;;;4.52;86.38
21594;BME280;10959;51.328;7.322;2022-12-19T05:52:01;98907.28;;;4.49;86.77
21594;BME280;10959;51.328;7.322;2022-12-19T05:54:28;98912.75;;;4.43;86.94
21594;BME280;10959;51.328;7.322;2022-12-19T05:56:54;98924.03;;;4.56;86.42
21594;BME280;10959;51.328;7.322;2022-12-19T05:59:21;98912.69;;;4.46;86.69
21594;BME280;10959;51.328;7.322;2022-12-19T06:01:48;98908.88;;;4.57;87.21
21594;BME280;10959;51.328;7.322;2022-12-19T06:04:15;98907.94;;;4.59;87.12
21594;BME280;10959;51.328;7.322;2022-12-19T06:06:41;98905.31;;;4.58;87.00
21594;BME280;10959;51.328;7.322;2022-12-19T06:09:08;98913.13;;;4.65;86.93
21594;BME280;10959;51.328;7.322;2022-12-19T06:11:34;98918.53;;;4.62;86.58
21594;BME280;10959;51.328;7.322;2022-12-19T06:14:01;98920.22;;;4.66;86.51
21594;BME280;10959;51.328;7.322;2022-12-19T06:16:27;98914.06;;;4.63;86.71
21594;BME280;10959;51.328;7.322;2022-12-19T06:18:55;98897.13;;;4.65;87.03
21594;BME280;10959;51.328;7.322;2022-12-19T06:21:22;98911.59;;;4.55;87.24
21594;BME280;10959;51.328;7.322;2022-12-19T06:23:49;98912.06;;;4.73;87.45
21594;BME280;10959;51.328;7.322;2022-12-19T06:26:18;98915.53;;;4.76;87.69
21594;BME280;10959;51.328;7.322;2022-12-19T06:28:45;98918.88;;;4.86;87.36
21594;BME280;10959;51.328;7.322;2022-12-19T06:31:11;98923.22;;;4.90;87.17
21594;BME280;10959;51.328;7.322;2022-12-19T06:33:38;98901.13;;;4.83;87.46
21594;BME280;10959;51.328;7.322;2022-12-19T06:36:09;98895.72;;;4.87;87.30
21594;BME280;10959;51.328;7.322;2022-12-19T06:38:36;98912.38;;;4.96;87.60
21594;BME280;10959;51.328;7.322;2022-12-19T06:41:03;98915.88;;;4.98;87.99
21594;BME280;10959;51.328;7.322;2022-12-19T06:43:47;98911.34;;;5.02;87.58
21594;BME280;10959;51.328;7.322;2022-12-19T06:46:14;98913.91;;;5.07;87.71
21594;BME280;10959;51.328;7.322;2022-12-19T06:48:40;98914.84;;;5.04;88.08
21594;BME280;10959;51.328;7.322;2022-12-19T06:51:08;98897.88;;;5.07;88.07
21594;BME280;10959;51.328;7.322;2022-12-19T06:53:34;98897.66;;;5.16;88.48
21594;BME280;10959;51.328;7.322;2022-12-19T06:56:01;98892.16;;;5.22;88.46
21594;BME280;10959;51.328;7.322;2022-12-19T06:58:28;98907.25;;;5.23;88.20
21594;BME280;10959;51.328;7.322;2022-12-19T07:00:55;98899.91;;;5.31;87.90
21594;BME280;10959;51.328;7.322;2022-12-19T07:03:23;98895.53;;;5.29;87.54
21594;BME280;10959;51.328;7.322;2022-12-19T07:05:51;98894.38;;;5.39;88.30
21594;BME280;10959;51.328;7.322;2022-12-19T07:08:19;98899.78;;;5.36;87.88
21594;BME280;10959;51.328;7.322;2022-12-19T07:10:46;98895.06;;;5.46;88.51
21594;BME280;10959;51.328;7.322;2022-12-19T07:13:12;98900.34;;;5.49;88.73
21594;BME280;10959;51.328;7.322;2022-12-19T07:15:39;98907.53;;;5.45;88.65
21594;BME280;10959;51.328;7.322;2022-12-19T07:18:07;98901.38;;;5.43;88.95
21594;BME280;10959;51.328;7.322;2022-12-19T07:20:36;98912.69;;;5.53;88.78
21594;BME280;10959;51.328;7.322;2022-12-19T07:23:03;98911.03;;;5.49;88.70
21594;BME280;10959;51.328;7.322;2022-12-19T07:25:33;98921.63;;;5.52;88.54
21594;BME280;10959;51.328;7.322;2022-12-19T07:28:00;98917.94;;;5.56;88.12
21594;BME280;10959;51.328;7.322;2022-12-19T07:30:26;98921.34;;;5.61;88.00
21594;BME280;10959;51.328;7.322;2022-12-19T07:32:52;98915.28;;;5.56;88.18
21594;BME280;10959;51.328;7.322;2022-12-19T07:35:20;98927.44;;;5.66;88.25
21594;BME280;10959;51.328;7.322;2022-12-19T07:37:47;98933.78;;;5.62;88.00
21594;BME280;10959;51.328;7.322;2022-12-19T07:40:14;98932.03;;;5.61;88.08
21594;BME280;10959;51.328;7.322;2022-12-19T07:42:42;98942.47;;;5.70;87.82
21594;BME280;10959;51.328;7.322;2022-12-19T07:45:09;98937.56;;;5.55;87.97
21594;BME280;10959;51.328;7.322;2022-12-19T07:47:36;98912.50;;;5.59;88.38
21594;BME280;10959;51.328;7.322;2022-12-19T07:50:03;98939.94;;;5.66;88.26
21594;BME280;10959;51.328;7.322;2022-12-19T07:52:30;98952.03;;;5.79;87.74
21594;BME280;10959;51.328;7.322;2022-12-19T07:54:56;98945.72;;;5.82;87.96
21594;BME280;10959;51.328;7.322;2022-12-19T07:57:22;98946.69;;;5.79;87.23
21594;BME280;10959;51.328;7.322;2022-12-19T07:59:50;98935.13;;;5.79;87.19
21594;BME280;10959;51.328;7.322;2022-12-19T08:02:17;98946.31;;;5.60;87.75
21594;BME280;10959;51.328;7.322;2022-12-19T08:04:43;98947.56;;;5.80;87.59
21594;BME280;10959;51.328;7.322;2022-12-19T08:07:10;98950.06;;;5.86;87.33
21594;BME280;10959;51.328;7.322;2022-12-19T08:09:36;98948.13;;;5.91;87.00
21594;BME280;10959;51.328;7.322;2022-12-19T08:12:03;98938.13;;;5.99;86.75
21594;BME280;10959;51.328;7.322;2022-12-19T08:14:30;98943.47;;;5.99;86.18
21594;BME280;10959;51.328;7.322;2022-12-19T08:16:57;98934.66;;;5.94;86.37
21594;BME280;10959;51.328;7.322;2022-12-19T08:19:24;98938.94;;;6.01;86.54
21594;BME280;10959;51.328;7.322;2022-12-19T08:21:50;98950.50;;;6.03;86.53
21594;BME280;10959;51.328;7.322;2022-12-19T08:24:17;98946.97;;;6.01;86.32
21594;BME280;10959;51.328;7.322;2022-12-19T08:26:43;98937.84;;;6.09;86.51
21594;BME280;10959;51.328;7.322;2022-12-19T08:29:10;98945.84;;;6.10;86.01
21594;BME280;10959;51.328;7.322;2022-12-19T08:31:36;98945.81;;;6.12;85.95
21594;BME280;10959;51.328;7.322;2022-12-19T08:34:04;98928.72;;;6.16;85.88
21594;BME280;10959;51.328;7.322;2022-12-19T08:36:30;98939.56;;;6.11;86.18
21594;BME280;10959;51.328;7.322;2022-12-19T08:38:57;98934.16;;;6.13;86.28
21594;BME280;10959;51.328;7.322;2022-12-19T08:41:23;98928.72;;;6.16;86.40
21594;BME280;10959;51.328;7.322;2022-12-19T08:43:51;98941.88;;;6.23;86.29
21594;BME280;10959;51.328;7.322;2022-12-19T08:46:18;98934.78;;;6.22;86.08
21594;BME280;10959;51.328;7.322;2022-12-19T08:48:45;98933.41;;;6.09;86.66
21594;BME280;10959;51.328;7.322;2022-12-19T08:51:14;98941.19;;;6.17;86.94
21594;BME280;10959;51.328;7.322;2022-12-19T08:53:43;98940.91;;;6.26;86.66
21594;BME280;10959;51.328;7.322;2022-12-19T08:56:12;98940.69;;;6.34;86.28
21594;BME280;10959;51.328;7.322;2022-12-19T08:58:39;98941.78;;;6.27;86.64
21594;BME280;10959;51.328;7.322;2022-12-19T09:01:08;98938.06;;;6.32;86.50
21594;BME280;10959;51.328;7.322;2022-12-19T09:03:37;98938.50;;;6.47;86.37
21594;BME280;10959;51.328;7.322;2022-12-19T09:06:06;98940.31;;;6.46;86.32
21594;BME280;10959;51.328;7.322;2022-12-19T09:08:35;98933.06;;;6.50;85.96
21594;BME280;10959;51.328;7.322;2022-12-19T09:11:04;98925.78;;;6.55;86.18
21594;BME280;10959;51.328;7.322;2022-12-19T09:13:31;98929.25;;;6.57;86.40
21594;BME280;10959;51.328;7.322;2022-12-19T09:15:59;98920.31;;;6.58;86.08
21594;BME280;10959;51.328;7.322;2022-12-19T09:18:26;98920.63;;;6.49;87.11
21594;BME280;10959;51.328;7.322;2022-12-19T09:20:53;98929.66;;;6.45;87.57
21594;BME280;10959;51.328;7.322;2022-12-19T09:23:20;98938.25;;;6.56;87.49
21594;BME280;10959;51.328;7.322;2022-12-19T09:25:48;98927.53;;;6.56;87.68
21594;BME280;10959;51.328;7.322;2022-12-19T09:28:14;98925.69;;;6.58;87.48
21594;BME280;10959;51.328;7.322;2022-12-19T09:30:41;98921.78;;;6.68;87.26
21594;BME280;10959;51.328;7.322;2022-12-19T09:33:07;98915.56;;;6.68;87.16
21594;BME280;10959;51.328;7.322;2022-12-19T09:35:34;98921.97;;;6.62;87.35
21594;BME280;10959;51.328;7.322;2022-12-19T09:38:01;98919.72;;;6.77;87.07
21594;BME280;10959;51.328;7.322;2022-12-19T09:40:42;98914.38;;;6.77;86.79
21594;BME280;10959;51.328;7.322;2022-12-19T09:43:21;98915.88;;;6.57;87.37
21594;BME280;10959;51.328;7.322;2022-12-19T09:46:00;98904.38;;;6.55;87.51
21594;BME280;10959;51.328;7.322;2022-12-19T09:48:29;98916.41;;;6.68;87.88
21594;BME280;10959;51.328;7.322;2022-12-19T09:50:59;98917.38;;;6.67;88.50
21594;BME280;10959;51.328;7.322;2022-12-19T09:53:31;98914.38;;;6.77;88.20
21594;BME280;10959;51.328;7.322;2022-12-19T09:56:01;98912.13;;;6.91;87.57
21594;BME280;10959;51.328;7.322;2022-12-19T09:58:34;98908.44;;;6.95;87.43
21594;BME280;10959;51.328;7.322;2022-12-19T10:01:05;98903.88;;;6.97;87.41
21594;BME280;10959;51.328;7.322;2022-12-19T10:03:38;98913.28;;;7.11;86.63
21594;BME280;10959;51.328;7.322;2022-12-19T10:06:13;98915.22;;;7.05;86.73
21594;BME280;10959;51.328;7.322;2022-12-19T10:08:41;98927.34;;;7.16;86.33
21594;BME280;10959;51.328;7.322;2022-12-19T10:11:21;98925.81;;;7.08;86.16
21594;BME280;10959;51.328;7.322;2022-12-19T10:14:04;98927.78;;;7.03;85.63
21594;BME280;10959;51.328;7.322;2022-12-19T10:16:41;98938.19;;;7.13;85.98
21594;BME280;10959;51.328;7.322;2022-12-19T10:19:16;98930.03;;;7.16;85.81
21594;BME280;10959;51.328;7.322;2022-12-19T10:21:50;98943.53;;;7.13;85.64
21594;BME280;10959;51.328;7.322;2022-12-19T10:24:44;98944.63;;;7.07;85.61
21594;BME280;10959;51.328;7.322;2022-12-19T10:27:19;98941.69;;;7.15;85.30
21594;BME280;10959;51.328;7.322;2022-12-19T10:30:01;98933.09;;;7.05;85.42
21594;BME280;10959;51.328;7.322;2022-12-19T10:32:33;98930.88;;;7.18;85.28
21594;BME280;10959;51.328;7.322;2022-12-19T10:35:11;98935.34;;;7.17;85.17
21594;BME280;10959;51.328;7.322;2022-12-19T10:37:43;98925.09;;;7.30;84.85
21594;BME280;10959;51.328;7.322;2022-12-19T10:40:14;98917.88;;;7.32;85.21
21594;BME280;10959;51.328;7.322;2022-12-19T10:42:48;98923.75;;;7.17;85.13
21594;BME280;10959;51.328;7.322;2022-12-19T10:45:19;98931.63;;;7.21;86.04
21594;BME280;10959;51.328;7.322;2022-12-19T10:47:49;98906.38;;;7.29;85.79
21594;BME280;10959;51.328;7.322;2022-12-19T10:50:21;98922.00;;;7.16;85.78
21594;BME280;10959;51.328;7.322;2022-12-19T10:52:51;98920.38;;;7.12;86.47
21594;BME280;10959;51.328;7.322;2022-12-19T10:55:31;98915.03;;;7.12;86.22
21594;BME280;10959;51.328;7.322;2022-12-19T10:57:59;98908.25;;;7.26;85.89
21594;BME280;10959;51.328;7.322;2022-12-19T11:00:45;98898.97;;;7.12;86.06
21594;BME280;10959;51.328;7.322;2022-12-19T11:03:12;98900.41;;;7.22;85.90
21594;BME280;10959;51.328;7.322;2022-12-19T11:05:45;98910.25;;;7.20;85.41
21594;BME280;10959;51.328;7.322;2022-12-19T11:08:16;98909.63;;;7.38;85.04
21594;BME280;10959;51.328;7.322;2022-12-19T11:10:45;98914.19;;;7.36;85.32
21594;BME280;10959;51.328;7.322;2022-12-19T11:13:21;98901.94;;;7.29;84.68
21594;BME280;10959;51.328;7.322;2022-12-19T11:15:51;98904.16;;;7.41;85.13
21594;BME280;10959;51.328;7.322;2022-12-19T11:18:18;98899.44;;;7.23;85.05
21594;BME280;10959;51.328;7.322;2022-12-19T11:20:56;98901.19;;;7.24;84.82
21594;BME280;10959;51.328;7.322;2022-12-19T11:23:24;98902.56;;;7.36;85.47
21594;BME280;10959;51.328;7.322;2022-12-19T11:25:54;98906.94;;;7.38;85.27
21594;BME280;10959;51.328;7.322;2022-12-19T11:28:23;98900.16;;;7.28;85.19
21594;BME280;10959;51.328;7.322;2022-12-19T11:30:57;98899.88;;;7.37;84.85
21594;BME280;10959;51.328;7.322;2022-12-19T11:33:24;98895.81;;;7.51;84.92
21594;BME280;10959;51.328;7.322;2022-12-19T11:35:52;98905.44;;;7.56;84.45
21594;BME280;10959;51.328;7.322;2022-12-19T11:38:28;98896.56;;;7.54;84.01
21594;BME280;10959;51.328;7.322;2022-12-19T11:40:58;98907.72;;;7.67;84.11
21594;BME280;10959;51.328;7.322;2022-12-19T11:43:28;98913.31;;;7.61;83.73
21594;BME280;10959;51.328;7.322;2022-12-19T11:46:01;98917.81;;;7.60;84.40
21594;BME280;10959;51.328;7.322;2022-12-19T11:48:36;98904.66;;;7.53;83.88
21594;BME280;10959;51.328;7.322;2022-12-19T11:51:06;98911.53;;;7.60;84.52
21594;BME280;10959;51.328;7.322;2022-12-19T11:53:44;98912.69;;;7.53;84.27
21594;BME280;10959;51.328;7.322;2022-12-19T11:56:15;98911.13;;;7.72;84.29
21594;BME280;10959;51.328;7.322;2022-12-19T11:58:47;98911.28;;;7.68;83.78
21594;BME280;10959;51.328;7.322;2022-12-19T12:01:22;98921.59;;;7.78;83.68
21594;BME280;10959;51.328;7.322;2022-12-19T12:04:09;98911.00;;;7.75;82.96
21594;BME280;10959;51.328;7.322;2022-12-19T12:06:43;98903.44;;;7.87;83.14
21594;BME280;10959;51.328;7.322;2022-12-19T12:09:16;98908.78;;;7.87;82.77
21594;BME280;10959;51.328;7.322;2022-12-19T12:11:50;98915.06;;;7.86;82.51
21594;BME280;10959;51.328;7.322;2022-12-19T12:14:19;98917.31;;;7.98;82.32
21594;BME280;10959;51.328;7.322;2022-12-19T12:17:06;98904.31;;;7.87;82.05
21594;BME280;10959;51.328;7.322;2022-12-19T12:19:54;98908.56;;;7.93;81.79
21594;BME280;10959;51.328;7.322;2022-12-19T12:22:37;98901.47;;;7.92;81.76
21594;BME280;10959;51.328;7.322;2022-12-19T12:25:20;98897.84;;;7.93;82.11
21594;BME280;10959;51.328;7.322;2022-12-19T12:27:54;98901.00;;;8.04;81.90
21594;BME280;10959;51.328;7.322;2022-12-19T12:30:23;98888.41;;;8.06;82.05
21594;BME280;10959;51.328;7.322;2022-12-19T12:32:59;98887.47;;;7.84;81.52
21594;BME280;10959;51.328;7.322;2022-12-19T12:35:33;98890.63;;;7.95;81.77
21594;BME280;10959;51.328;7.322;2022-12-19T12:38:11;98866.38;;;7.98;81.04
21594;BME280;10959;51.328;7.322;2022-12-19T12:40:52;98881.41;;;8.02;81.13
21594;BME280;10959;51.328;7.322;2022-12-19T12:43:35;98870.09;;;7.94;80.99
21594;BME280;10959;51.328;7.322;2022-12-19T12:46:08;98868.53;;;8.12;81.27
21594;BME280;10959;51.328;7.322;2022-12-19T12:48:42;98870.97;;;8.18;80.68
21594;BME280;10959;51.328;7.322;2022-12-19T12:51:11;98869.84;;;8.24;80.96
21594;BME280;10959;51.328;7.322;2022-12-19T12:53:41;98868.75;;;8.29;80.45
21594;BME280;10959;51.328;7.322;2022-12-19T12:56:09;98869.72;;;8.27;80.61
21594;BME280;10959;51.328;7.322;2022-12-19T12:59:05;98869.41;;;8.12;80.07
21594;BME280;10959;51.328;7.322;2022-12-19T13:01:34;98869.25;;;8.39;80.12
21594;BME280;10959;51.328;7.322;2022-12-19T13:04:05;98862.38;;;8.32;79.80
21594;BME280;10959;51.328;7.322;2022-12-19T13:06:34;98867.38;;;8.41;79.86
21594;BME280;10959;51.328;7.322;2022-12-19T13:09:04;98860.28;;;8.40;79.61
21594;BME280;10959;51.328;7.322;2022-12-19T13:11:46;98863.19;;;8.34;79.10
21594;BME280;10959;51.328;7.322;2022-12-19T13:14:43;98858.41;;;8.19;79.39
21594;BME280;10959;51.328;7.322;2022-12-19T13:17:11;98857.75;;;8.36;79.77
21594;BME280;10959;51.328;7.322;2022-12-19T13:19:52;98857.16;;;8.29;79.13
21594;BME280;10959;51.328;7.322;2022-12-19T13:22:21;98850.06;;;8.50;78.78
21594;BME280;10959;51.328;7.322;2022-12-19T13:24:49;98845.72;;;8.47;79.33
21594;BME280;10959;51.328;7.322;2022-12-19T13:27:34;98841.06;;;8.29;78.35